Ajda — OMXE — position and weather

sailwx.info

Track history (hours):
 
Tides and Currents Weather Stations Pressure Air Temp Water Temp Dewpoint Dewpoint Depression Visibility Wind Speed Wind Dir Waves Ship Positions

Ajda

Last reported at 2017-Oct-14 19:10 UTC. Time now 2017-Oct-23 05:56 UTC.
Position N 39°21' E 002°47'.
Warning: this ship's position is 8 days out of date.

Length 14 m.

Type: Sailing vessel. MMSI: 267210138.

Date/timePositionNaut miles runAvg speedWind from/ knotsBaromVisibWave heightAir tempDewpointWater temp
2017-Oct-14 19:10N 39°21' E 002°47'1 6.2
2017-Oct-14 19:00N 39°22' E 002°46'3 6.2
2017-Oct-14 18:31N 39°24' E 002°43'3 5.8
2017-Oct-14 18:00N 39°26' E 002°41'3 5.2
2017-Oct-14 17:30N 39°29' E 002°39'3 5.3
2017-Oct-14 17:00N 39°31' E 002°37'2 3.8
2017-Oct-14 16:29N 39°32' E 002°36'0 0.0
2017-Oct-14 15:59N 39°32' E 002°36'0 0.0
2017-Oct-14 15:29N 39°32' E 002°36'0 0.0
2017-Oct-14 14:59N 39°32' E 002°36'0 0.0
2017-Oct-14 14:29N 39°32' E 002°36'0 0.0
2017-Oct-14 13:59N 39°32' E 002°36'1 1.3
2017-Oct-14 13:30N 39°32' E 002°35'3 7.0
2017-Oct-14 13:00N 39°29' E 002°33'  
2017-Oct-07 09:58N 39°27' E 002°30'3 5.5
2017-Oct-07 09:30N 39°29' E 002°32'3 0.1
2017-Oct-06 12:42N 39°32' E 002°34'1 4.4
2017-Oct-06 12:30N 39°31' E 002°33'1 0.8
2017-Oct-06 11:46N 39°31' E 002°33'0 0.0
2017-Oct-05 19:16N 39°31' E 002°33'0 0.0
2017-Oct-05 18:55N 39°31' E 002°33'0 0.0
2017-Oct-05 18:19N 39°31' E 002°33'0 0.0
2017-Oct-05 17:16N 39°31' E 002°33'0 0.0
2017-Oct-05 16:58N 39°31' E 002°33'0 0.0
2017-Oct-05 15:16N 39°31' E 002°33'0 0.0
2017-Oct-05 14:55N 39°31' E 002°33'0 0.0
2017-Oct-05 14:16N 39°31' E 002°33'0 0.0
2017-Oct-05 14:01N 39°31' E 002°33'0 0.0
2017-Oct-05 13:06N 39°31' E 002°33'0 1.0
2017-Oct-05 13:00N 39°31' E 002°33'3 5.0
2017-Oct-05 12:30N 39°28' E 002°32'  
Track history (hours):
 
Tides and Currents Weather Stations Pressure Air Temp Water Temp Dewpoint Dewpoint Depression Visibility Wind Speed Wind Dir Waves Ship Positions

Ajda

Last reported at 2017-Oct-14 19:10 UTC. Time now 2017-Oct-23 05:56 UTC.
Position N 39°21' E 002°47'.
Warning: this ship's position is 8 days out of date.

Length 14 m.

Type: Sailing vessel. MMSI: 267210138.

Date/timePositionNaut miles runAvg speedWind from/ knotsBaromVisibWave heightAir tempDewpointWater temp
2017-Oct-14 19:10N 39°21' E 002°47'1 6.2
2017-Oct-14 19:00N 39°22' E 002°46'3 6.2
2017-Oct-14 18:31N 39°24' E 002°43'3 5.8
2017-Oct-14 18:00N 39°26' E 002°41'3 5.2
2017-Oct-14 17:30N 39°29' E 002°39'3 5.3
2017-Oct-14 17:00N 39°31' E 002°37'2 3.8
2017-Oct-14 16:29N 39°32' E 002°36'0 0.0
2017-Oct-14 15:59N 39°32' E 002°36'0 0.0
2017-Oct-14 15:29N 39°32' E 002°36'0 0.0
2017-Oct-14 14:59N 39°32' E 002°36'0 0.0
2017-Oct-14 14:29N 39°32' E 002°36'0 0.0
2017-Oct-14 13:59N 39°32' E 002°36'1 1.3
2017-Oct-14 13:30N 39°32' E 002°35'3 7.0
2017-Oct-14 13:00N 39°29' E 002°33'  
2017-Oct-07 09:58N 39°27' E 002°30'3 5.5
2017-Oct-07 09:30N 39°29' E 002°32'3 0.1
2017-Oct-06 12:42N 39°32' E 002°34'1 4.4
2017-Oct-06 12:30N 39°31' E 002°33'1 0.8
2017-Oct-06 11:46N 39°31' E 002°33'0 0.0
2017-Oct-05 19:16N 39°31' E 002°33'0 0.0
2017-Oct-05 18:55N 39°31' E 002°33'0 0.0
2017-Oct-05 18:19N 39°31' E 002°33'0 0.0
2017-Oct-05 17:16N 39°31' E 002°33'0 0.0
2017-Oct-05 16:58N 39°31' E 002°33'0 0.0
2017-Oct-05 15:16N 39°31' E 002°33'0 0.0
2017-Oct-05 14:55N 39°31' E 002°33'0 0.0
2017-Oct-05 14:16N 39°31' E 002°33'0 0.0
2017-Oct-05 14:01N 39°31' E 002°33'0 0.0
2017-Oct-05 13:06N 39°31' E 002°33'0 1.0
2017-Oct-05 13:00N 39°31' E 002°33'3 5.0
2017-Oct-05 12:30N 39°28' E 002°32'  

Dump ship's entire track history